sensor_id;sensor_type;location;lat;lon;timestamp;pressure;altitude;pressure_sealevel;temperature;humidity
44359;BME280;30077;52.474;13.326;2022-08-02T00:01:14;101142.16;;;19.41;82.59
44359;BME280;30077;52.474;13.326;2022-08-02T00:06:14;101148.31;;;19.43;82.41
44359;BME280;30077;52.474;13.326;2022-08-02T00:11:15;101161.09;;;19.41;82.01
44359;BME280;30077;52.474;13.326;2022-08-02T00:16:15;101169.28;;;19.28;82.45
44359;BME280;30077;52.474;13.326;2022-08-02T00:21:15;101166.22;;;19.33;81.76
44359;BME280;30077;52.474;13.326;2022-08-02T00:26:16;101157.34;;;19.31;81.29
44359;BME280;30077;52.474;13.326;2022-08-02T00:31:16;101157.34;;;19.31;81.15
44359;BME280;30077;52.474;13.326;2022-08-02T00:36:16;101154.41;;;19.34;81.38
44359;BME280;30077;52.474;13.326;2022-08-02T00:41:18;101151.47;;;19.37;80.59
44359;BME280;30077;52.474;13.326;2022-08-02T00:46:20;101149.75;;;19.36;78.07
44359;BME280;30077;52.474;13.326;2022-08-02T00:51:20;101152.97;;;19.41;78.92
44359;BME280;30077;52.474;13.326;2022-08-02T00:56:20;101153.75;;;19.43;77.53
44359;BME280;30077;52.474;13.326;2022-08-02T01:01:21;101169.22;;;19.41;76.22
44359;BME280;30077;52.474;13.326;2022-08-02T01:06:40;101161.94;;;19.17;75.64
44359;BME280;30077;52.474;13.326;2022-08-02T01:11:40;101168.44;;;19.15;76.50
44359;BME280;30077;52.474;13.326;2022-08-02T01:17:00;101174.47;;;19.18;75.92
44359;BME280;30077;52.474;13.326;2022-08-02T01:22:37;101165.59;;;19.16;75.18
44359;BME280;30077;52.474;13.326;2022-08-02T01:32:54;101180.75;;;19.19;74.77
44359;BME280;30077;52.474;13.326;2022-08-02T01:38:05;101178.16;;;19.17;74.50
44359;BME280;30077;52.474;13.326;2022-08-02T01:43:07;101180.88;;;19.17;74.48
44359;BME280;30077;52.474;13.326;2022-08-02T01:48:10;101186.28;;;19.17;73.79
44359;BME280;30077;52.474;13.326;2022-08-02T01:53:12;101180.75;;;19.19;73.45
44359;BME280;30077;52.474;13.326;2022-08-02T01:58:16;101170.59;;;19.10;73.99
44359;BME280;30077;52.474;13.326;2022-08-02T02:03:21;101174.72;;;19.03;73.80
44359;BME280;30077;52.474;13.326;2022-08-02T02:08:28;101179.47;;;18.99;73.85
44359;BME280;30077;52.474;13.326;2022-08-02T02:13:29;101174.06;;;18.99;74.10
44359;BME280;30077;52.474;13.326;2022-08-02T02:18:33;101166.72;;;19.01;73.84
44359;BME280;30077;52.474;13.326;2022-08-02T02:23:37;101173.84;;;19.02;74.04
44359;BME280;30077;52.474;13.326;2022-08-02T02:28:38;101174.06;;;18.99;74.24
44359;BME280;30077;52.474;13.326;2022-08-02T02:33:49;101162.50;;;18.97;74.11
44359;BME280;30077;52.474;13.326;2022-08-02T02:38:50;101164.56;;;18.93;73.04
44359;BME280;30077;52.474;13.326;2022-08-02T02:43:54;101174.97;;;18.87;72.76
44359;BME280;30077;52.474;13.326;2022-08-02T02:48:55;101178.88;;;18.83;71.19
44359;BME280;30077;52.474;13.326;2022-08-02T02:53:56;101176.50;;;18.78;70.21
44359;BME280;30077;52.474;13.326;2022-08-02T02:58:57;101181.25;;;18.74;68.86
44359;BME280;30077;52.474;13.326;2022-08-02T03:04:00;101187.28;;;18.65;67.12
44359;BME280;30077;52.474;13.326;2022-08-02T03:09:01;101192.78;;;18.51;66.83
44359;BME280;30077;52.474;13.326;2022-08-02T03:14:03;101194.94;;;18.46;66.38
44359;BME280;30077;52.474;13.326;2022-08-02T03:19:03;101201.53;;;18.42;66.81
44359;BME280;30077;52.474;13.326;2022-08-02T03:24:04;101200.69;;;18.41;66.81
44359;BME280;30077;52.474;13.326;2022-08-02T03:29:05;101203.69;;;18.37;65.78
44359;BME280;30077;52.474;13.326;2022-08-02T03:34:06;101211.78;;;18.37;67.92
44359;BME280;30077;52.474;13.326;2022-08-02T03:39:07;101213.63;;;18.23;73.70
44359;BME280;30077;52.474;13.326;2022-08-02T03:44:09;101214.03;;;18.17;77.16
44359;BME280;30077;52.474;13.326;2022-08-02T03:49:13;101220.94;;;18.09;79.09
44359;BME280;30077;52.474;13.326;2022-08-02T03:54:16;101219.84;;;18.11;79.00
44359;BME280;30077;52.474;13.326;2022-08-02T03:59:17;101225.16;;;18.13;80.86
44359;BME280;30077;52.474;13.326;2022-08-02T04:04:17;101221.59;;;18.25;80.96
44359;BME280;30077;52.474;13.326;2022-08-02T04:09:17;101221.63;;;18.38;80.22
44359;BME280;30077;52.474;13.326;2022-08-02T04:14:18;101231.13;;;18.43;80.28
44359;BME280;30077;52.474;13.326;2022-08-02T04:19:26;101241.69;;;18.34;80.75
44359;BME280;30077;52.474;13.326;2022-08-02T04:24:31;101243.25;;;18.38;80.29
44359;BME280;30077;52.474;13.326;2022-08-02T04:29:33;101242.88;;;18.29;79.40
44359;BME280;30077;52.474;13.326;2022-08-02T04:34:34;101240.88;;;18.46;78.84
44359;BME280;30077;52.474;13.326;2022-08-02T04:39:34;101247.59;;;18.53;78.35
44359;BME280;30077;52.474;13.326;2022-08-02T04:44:35;101252.88;;;18.55;78.05
44359;BME280;30077;52.474;13.326;2022-08-02T04:49:35;101251.16;;;18.66;77.14
44359;BME280;30077;52.474;13.326;2022-08-02T04:54:36;101256.28;;;18.84;76.75
44359;BME280;30077;52.474;13.326;2022-08-02T04:59:36;101248.28;;;18.95;75.95
44359;BME280;30077;52.474;13.326;2022-08-02T05:04:36;101257.16;;;18.97;76.42
44359;BME280;30077;52.474;13.326;2022-08-02T05:09:36;101269.38;;;19.15;75.96
44359;BME280;30077;52.474;13.326;2022-08-02T05:14:37;101261.97;;;19.43;73.41
44359;BME280;30077;52.474;13.326;2022-08-02T05:19:37;101262.50;;;19.48;73.72
44359;BME280;30077;52.474;13.326;2022-08-02T05:24:37;101256.22;;;19.35;74.26
44359;BME280;30077;52.474;13.326;2022-08-02T05:29:37;101261.22;;;19.41;74.68
44359;BME280;30077;52.474;13.326;2022-08-02T05:34:38;101271.25;;;19.39;75.13
44359;BME280;30077;52.474;13.326;2022-08-02T05:39:38;101278.06;;;19.57;73.97
44359;BME280;30077;52.474;13.326;2022-08-02T05:44:38;101285.16;;;19.84;73.46
44359;BME280;30077;52.474;13.326;2022-08-02T05:49:38;101293.75;;;20.02;72.07
44359;BME280;30077;52.474;13.326;2022-08-02T05:54:47;101298.88;;;20.17;70.72
44359;BME280;30077;52.474;13.326;2022-08-02T06:00:03;101292.53;;;20.30;70.08
44359;BME280;30077;52.474;13.326;2022-08-02T06:05:13;101303.94;;;20.46;68.86
44359;BME280;30077;52.474;13.326;2022-08-02T06:10:19;101306.78;;;20.80;67.77
44359;BME280;30077;52.474;13.326;2022-08-02T06:15:19;101300.06;;;21.08;65.93
44359;BME280;30077;52.474;13.326;2022-08-02T06:20:20;101309.81;;;21.33;64.14
44359;BME280;30077;52.474;13.326;2022-08-02T06:25:21;101298.25;;;21.42;63.10
44359;BME280;30077;52.474;13.326;2022-08-02T06:30:21;101303.94;;;21.39;63.01
44359;BME280;30077;52.474;13.326;2022-08-02T06:35:25;101306.13;;;21.56;62.37
44359;BME280;30077;52.474;13.326;2022-08-02T06:40:33;101296.00;;;21.70;60.28
44359;BME280;30077;52.474;13.326;2022-08-02T06:45:35;101302.34;;;21.48;60.93
44359;BME280;30077;52.474;13.326;2022-08-02T06:50:36;101289.13;;;21.66;60.99
44359;BME280;30077;52.474;13.326;2022-08-02T06:55:37;101297.25;;;21.77;58.66
44359;BME280;30077;52.474;13.326;2022-08-02T07:00:38;101290.94;;;21.76;57.37
44359;BME280;30077;52.474;13.326;2022-08-02T07:05:41;101284.41;;;21.56;57.38
44359;BME280;30077;52.474;13.326;2022-08-02T07:10:46;101274.53;;;21.67;58.23
44359;BME280;30077;52.474;13.326;2022-08-02T07:15:47;101282.78;;;21.20;58.09
44359;BME280;30077;52.474;13.326;2022-08-02T07:20:48;101279.72;;;21.13;57.75
44359;BME280;30077;52.474;13.326;2022-08-02T07:25:48;101282.78;;;20.98;59.28
44359;BME280;30077;52.474;13.326;2022-08-02T07:30:49;101279.69;;;21.02;58.42
44359;BME280;30077;52.474;13.326;2022-08-02T07:35:49;101279.72;;;21.25;58.84
44359;BME280;30077;52.474;13.326;2022-08-02T07:40:50;101284.66;;;21.42;57.64
44359;BME280;30077;52.474;13.326;2022-08-02T07:45:50;101285.28;;;21.34;55.79
44359;BME280;30077;52.474;13.326;2022-08-02T07:50:50;101272.84;;;21.43;56.03
44359;BME280;30077;52.474;13.326;2022-08-02T07:55:51;101266.19;;;21.47;55.54
44359;BME280;30077;52.474;13.326;2022-08-02T08:00:51;101270.34;;;21.29;54.92
44359;BME280;30077;52.474;13.326;2022-08-02T08:05:51;101275.03;;;21.49;56.48
44359;BME280;30077;52.474;13.326;2022-08-02T08:10:53;101268.38;;;21.76;56.47
44359;BME280;30077;52.474;13.326;2022-08-02T08:15:53;101274.72;;;21.97;56.91
44359;BME280;30077;52.474;13.326;2022-08-02T08:20:54;101266.63;;;22.18;55.75
44359;BME280;30077;52.474;13.326;2022-08-02T08:25:54;101270.97;;;22.21;54.45
44359;BME280;30077;52.474;13.326;2022-08-02T08:30:54;101265.28;;;22.13;54.99
44359;BME280;30077;52.474;13.326;2022-08-02T08:35:55;101260.03;;;22.32;56.27
44359;BME280;30077;52.474;13.326;2022-08-02T08:40:55;101247.06;;;22.56;55.31
44359;BME280;30077;52.474;13.326;2022-08-02T08:45:55;101244.19;;;22.79;54.72
44359;BME280;30077;52.474;13.326;2022-08-02T08:51:00;101247.59;;;22.92;53.90
44359;BME280;30077;52.474;13.326;2022-08-02T08:56:03;101252.63;;;22.76;52.35
44359;BME280;30077;52.474;13.326;2022-08-02T09:01:03;101253.50;;;22.97;52.51
44359;BME280;30077;52.474;13.326;2022-08-02T09:06:04;101251.78;;;22.96;52.77
44359;BME280;30077;52.474;13.326;2022-08-02T09:11:13;101262.38;;;23.30;52.38
44359;BME280;30077;52.474;13.326;2022-08-02T09:16:14;101250.69;;;23.39;51.80
44359;BME280;30077;52.474;13.326;2022-08-02T09:21:15;101253.03;;;23.53;50.44
44359;BME280;30077;52.474;13.326;2022-08-02T09:26:20;101259.06;;;23.57;51.48
44359;BME280;30077;52.474;13.326;2022-08-02T09:31:22;101245.28;;;23.59;53.01
44359;BME280;30077;52.474;13.326;2022-08-02T09:36:23;101246.22;;;23.69;51.17
44359;BME280;30077;52.474;13.326;2022-08-02T09:41:26;101245.94;;;23.72;51.83
44359;BME280;30077;52.474;13.326;2022-08-02T09:46:28;101241.06;;;23.85;51.22
44359;BME280;30077;52.474;13.326;2022-08-02T09:51:30;101235.94;;;24.01;50.56
44359;BME280;30077;52.474;13.326;2022-08-02T09:56:48;101232.50;;;23.90;49.44
44359;BME280;30077;52.474;13.326;2022-08-02T10:01:50;101235.94;;;24.01;50.17
44359;BME280;30077;52.474;13.326;2022-08-02T10:06:52;101237.94;;;23.99;49.12
44359;BME280;30077;52.474;13.326;2022-08-02T10:11:52;101244.53;;;23.87;50.26
44359;BME280;30077;52.474;13.326;2022-08-02T10:16:55;101243.66;;;23.96;49.95
44359;BME280;30077;52.474;13.326;2022-08-02T10:27:00;101234.13;;;23.62;50.41
44359;BME280;30077;52.474;13.326;2022-08-02T10:32:06;101246.84;;;24.01;50.06
44359;BME280;30077;52.474;13.326;2022-08-02T10:37:08;101238.81;;;24.48;48.73
44359;BME280;30077;52.474;13.326;2022-08-02T10:42:10;101254.00;;;24.61;48.47
44359;BME280;30077;52.474;13.326;2022-08-02T10:52:14;101216.00;;;24.96;47.90
44359;BME280;30077;52.474;13.326;2022-08-02T10:57:23;101199.09;;;24.83;48.12
44359;BME280;30077;52.474;13.326;2022-08-02T11:02:41;101182.25;;;24.50;45.75
44359;BME280;30077;52.474;13.326;2022-08-02T11:07:44;101186.00;;;24.30;46.82
44359;BME280;30077;52.474;13.326;2022-08-02T11:13:08;101175.97;;;24.40;48.22
44359;BME280;30077;52.474;13.326;2022-08-02T11:18:09;101191.44;;;24.59;48.51
44359;BME280;30077;52.474;13.326;2022-08-02T11:28:38;101172.91;;;24.63;47.32
44359;BME280;30077;52.474;13.326;2022-08-02T11:33:39;101170.47;;;24.60;47.04
44359;BME280;30077;52.474;13.326;2022-08-02T11:38:39;101169.63;;;24.40;49.49
44359;BME280;30077;52.474;13.326;2022-08-02T11:43:39;101156.97;;;24.29;49.67
44359;BME280;30077;52.474;13.326;2022-08-02T11:48:41;101159.25;;;24.63;46.35
44359;BME280;30077;52.474;13.326;2022-08-02T11:53:50;101160.97;;;25.01;45.95
44359;BME280;30077;52.474;13.326;2022-08-02T11:59:08;101159.94;;;25.12;45.57
44359;BME280;30077;52.474;13.326;2022-08-02T12:04:08;101151.31;;;25.07;46.66
44359;BME280;30077;52.474;13.326;2022-08-02T12:09:11;101144.84;;;24.80;46.78
44359;BME280;30077;52.474;13.326;2022-08-02T12:14:12;101143.63;;;24.92;45.71
44359;BME280;30077;52.474;13.326;2022-08-02T12:19:13;101145.84;;;25.07;45.37
44359;BME280;30077;52.474;13.326;2022-08-02T12:24:28;101130.28;;;24.89;45.41
44359;BME280;30077;52.474;13.326;2022-08-02T12:29:32;101122.31;;;25.06;45.53
44359;BME280;30077;52.474;13.326;2022-08-02T12:34:34;101125.16;;;25.04;46.49
44359;BME280;30077;52.474;13.326;2022-08-02T12:39:45;101132.59;;;25.21;45.25
44359;BME280;30077;52.474;13.326;2022-08-02T12:44:53;101120.09;;;25.19;45.47
44359;BME280;30077;52.474;13.326;2022-08-02T12:50:16;101125.03;;;25.33;44.33
44359;BME280;30077;52.474;13.326;2022-08-02T12:55:18;101111.44;;;25.41;44.11
44359;BME280;30077;52.474;13.326;2022-08-02T13:00:31;101112.69;;;25.29;45.18
44359;BME280;30077;52.474;13.326;2022-08-02T13:05:33;101107.78;;;25.33;44.36
44359;BME280;30077;52.474;13.326;2022-08-02T13:10:35;101097.72;;;25.33;44.99
44359;BME280;30077;52.474;13.326;2022-08-02T13:15:36;101101.97;;;25.45;43.75
44359;BME280;30077;52.474;13.326;2022-08-02T13:20:37;101108.19;;;25.56;44.36
44359;BME280;30077;52.474;13.326;2022-08-02T13:25:37;101103.13;;;25.61;43.70
44359;BME280;30077;52.474;13.326;2022-08-02T13:30:37;101091.25;;;25.52;43.85
44359;BME280;30077;52.474;13.326;2022-08-02T13:35:38;101079.16;;;25.55;44.89
44359;BME280;30077;52.474;13.326;2022-08-02T13:40:38;101084.13;;;25.77;43.35
44359;BME280;30077;52.474;13.326;2022-08-02T13:46:03;101067.69;;;25.87;41.53
44359;BME280;30077;52.474;13.326;2022-08-02T13:51:03;101069.69;;;25.85;41.77
44359;BME280;30077;52.474;13.326;2022-08-02T13:56:06;101064.78;;;25.88;43.09
44359;BME280;30077;52.474;13.326;2022-08-02T14:01:07;101072.19;;;25.96;40.79
44359;BME280;30077;52.474;13.326;2022-08-02T14:06:07;101055.88;;;26.38;41.03
44359;BME280;30077;52.474;13.326;2022-08-02T14:11:08;101050.06;;;26.68;40.99
44359;BME280;30077;52.474;13.326;2022-08-02T14:16:08;101042.09;;;26.91;39.59
44359;BME280;30077;52.474;13.326;2022-08-02T14:21:09;101042.03;;;26.66;39.66
44359;BME280;30077;52.474;13.326;2022-08-02T14:26:09;101041.31;;;26.56;40.16
44359;BME280;30077;52.474;13.326;2022-08-02T14:31:09;101036.88;;;26.63;42.89
44359;BME280;30077;52.474;13.326;2022-08-02T14:36:10;101024.19;;;27.04;41.73
44359;BME280;30077;52.474;13.326;2022-08-02T14:41:10;101030.59;;;27.38;41.08
44359;BME280;30077;52.474;13.326;2022-08-02T14:46:10;101023.09;;;27.80;40.00
44359;BME280;30077;52.474;13.326;2022-08-02T14:51:10;101026.13;;;28.10;40.17
44359;BME280;30077;52.474;13.326;2022-08-02T14:56:13;101008.44;;;28.21;38.29
44359;BME280;30077;52.474;13.326;2022-08-02T15:01:13;101002.13;;;28.12;38.14
44359;BME280;30077;52.474;13.326;2022-08-02T15:06:13;101011.78;;;27.92;37.36
44359;BME280;30077;52.474;13.326;2022-08-02T15:11:14;100993.97;;;27.71;37.34
44359;BME280;30077;52.474;13.326;2022-08-02T15:16:14;100995.31;;;27.92;37.36
44359;BME280;30077;52.474;13.326;2022-08-02T15:21:14;100992.94;;;27.64;37.11
44359;BME280;30077;52.474;13.326;2022-08-02T15:26:15;100984.88;;;27.71;37.38
44359;BME280;30077;52.474;13.326;2022-08-02T15:31:15;100990.19;;;27.56;37.70
44359;BME280;30077;52.474;13.326;2022-08-02T15:36:16;100985.03;;;27.94;37.19
44359;BME280;30077;52.474;13.326;2022-08-02T15:41:16;100989.84;;;28.00;37.27
44359;BME280;30077;52.474;13.326;2022-08-02T15:46:17;100996.47;;;28.22;37.90
44359;BME280;30077;52.474;13.326;2022-08-02T15:51:17;100989.84;;;28.00;36.43
44359;BME280;30077;52.474;13.326;2022-08-02T15:56:17;100999.44;;;27.88;36.84
44359;BME280;30077;52.474;13.326;2022-08-02T16:01:18;100986.72;;;28.03;36.16
44359;BME280;30077;52.474;13.326;2022-08-02T16:06:18;100979.53;;;28.02;37.56
44359;BME280;30077;52.474;13.326;2022-08-02T16:11:18;100975.75;;;28.03;37.58
44359;BME280;30077;52.474;13.326;2022-08-02T16:16:27;100980.13;;;28.28;37.28
44359;BME280;30077;52.474;13.326;2022-08-02T16:21:27;100975.63;;;28.36;36.69
44359;BME280;30077;52.474;13.326;2022-08-02T16:26:29;100975.72;;;28.19;37.64
44359;BME280;30077;52.474;13.326;2022-08-02T16:31:29;100979.72;;;28.00;36.24
44359;BME280;30077;52.474;13.326;2022-08-02T16:36:30;100973.41;;;27.83;36.85
44359;BME280;30077;52.474;13.326;2022-08-02T16:41:30;100966.56;;;27.79;37.85
44359;BME280;30077;52.474;13.326;2022-08-02T16:46:31;100977.47;;;28.04;37.57
44359;BME280;30077;52.474;13.326;2022-08-02T16:51:31;100974.72;;;28.12;37.17
44359;BME280;30077;52.474;13.326;2022-08-02T16:56:32;100958.66;;;27.84;37.36
44359;BME280;30077;52.474;13.326;2022-08-02T17:01:32;100960.72;;;27.58;36.90
44359;BME280;30077;52.474;13.326;2022-08-02T17:06:32;100953.91;;;27.21;38.11
44359;BME280;30077;52.474;13.326;2022-08-02T17:11:32;100958.34;;;27.14;38.81
44359;BME280;30077;52.474;13.326;2022-08-02T17:16:33;100958.06;;;26.75;40.39
44359;BME280;30077;52.474;13.326;2022-08-02T17:21:33;100960.25;;;26.55;39.46
44359;BME280;30077;52.474;13.326;2022-08-02T17:26:37;100970.22;;;26.38;39.58
44359;BME280;30077;52.474;13.326;2022-08-02T17:31:37;100969.47;;;26.20;40.21
44359;BME280;30077;52.474;13.326;2022-08-02T17:36:37;100975.03;;;26.10;40.97
44359;BME280;30077;52.474;13.326;2022-08-02T17:41:38;100978.38;;;25.96;41.07
44359;BME280;30077;52.474;13.326;2022-08-02T17:46:38;100983.09;;;25.85;41.86
44359;BME280;30077;52.474;13.326;2022-08-02T17:51:39;100976.84;;;25.75;41.81
44359;BME280;30077;52.474;13.326;2022-08-02T17:56:39;100982.19;;;25.59;42.08
44359;BME280;30077;52.474;13.326;2022-08-02T18:01:44;100974.34;;;25.38;43.06
44359;BME280;30077;52.474;13.326;2022-08-02T18:06:47;100977.41;;;25.17;43.29
44359;BME280;30077;52.474;13.326;2022-08-02T18:11:47;100983.69;;;25.00;43.67
44359;BME280;30077;52.474;13.326;2022-08-02T18:16:48;100985.84;;;24.78;44.07
44359;BME280;30077;52.474;13.326;2022-08-02T18:21:48;100993.13;;;24.60;44.38
44359;BME280;30077;52.474;13.326;2022-08-02T18:26:49;100994.25;;;24.39;44.88
44359;BME280;30077;52.474;13.326;2022-08-02T18:31:49;100988.56;;;24.13;45.99
44359;BME280;30077;52.474;13.326;2022-08-02T18:36:50;100991.78;;;23.89;47.11
44359;BME280;30077;52.474;13.326;2022-08-02T18:41:50;100987.41;;;23.69;47.73
44359;BME280;30077;52.474;13.326;2022-08-02T18:46:50;100985.56;;;23.50;48.67
44359;BME280;30077;52.474;13.326;2022-08-02T18:51:51;100988.16;;;23.32;49.81
44359;BME280;30077;52.474;13.326;2022-08-02T18:56:51;100989.88;;;23.14;50.33
44359;BME280;30077;52.474;13.326;2022-08-02T19:01:51;100986.84;;;22.97;51.32
44359;BME280;30077;52.474;13.326;2022-08-02T19:06:52;100988.94;;;22.84;52.13
44359;BME280;30077;52.474;13.326;2022-08-02T19:11:52;100985.47;;;22.72;52.70
44359;BME280;30077;52.474;13.326;2022-08-02T19:16:52;100989.63;;;22.67;52.72
44359;BME280;30077;52.474;13.326;2022-08-02T19:21:53;100984.72;;;22.61;53.62
44359;BME280;30077;52.474;13.326;2022-08-02T19:26:53;100991.13;;;22.50;53.39
44359;BME280;30077;52.474;13.326;2022-08-02T19:31:53;100996.53;;;22.40;54.27
44359;BME280;30077;52.474;13.326;2022-08-02T19:36:54;100997.38;;;22.31;54.30
44359;BME280;30077;52.474;13.326;2022-08-02T19:41:54;100996.91;;;22.26;55.04
44359;BME280;30077;52.474;13.326;2022-08-02T19:46:54;100990.44;;;22.17;55.12
44359;BME280;30077;52.474;13.326;2022-08-02T19:51:54;100986.94;;;22.05;55.36
44359;BME280;30077;52.474;13.326;2022-08-02T19:56:55;100999.19;;;22.00;55.49
44359;BME280;30077;52.474;13.326;2022-08-02T20:01:55;100994.75;;;21.99;54.91
44359;BME280;30077;52.474;13.326;2022-08-02T20:06:55;101009.19;;;21.99;54.58
44359;BME280;30077;52.474;13.326;2022-08-02T20:11:56;100994.31;;;21.94;54.57
44359;BME280;30077;52.474;13.326;2022-08-02T20:16:56;101000.13;;;21.89;54.76
44359;BME280;30077;52.474;13.326;2022-08-02T20:21:56;100988.06;;;21.82;54.72
44359;BME280;30077;52.474;13.326;2022-08-02T20:26:57;100999.22;;;21.79;55.03
44359;BME280;30077;52.474;13.326;2022-08-02T20:31:57;101001.06;;;21.78;55.33
44359;BME280;30077;52.474;13.326;2022-08-02T20:36:58;101002.22;;;21.76;55.63
44359;BME280;30077;52.474;13.326;2022-08-02T20:41:58;101007.91;;;21.73;55.60
44359;BME280;30077;52.474;13.326;2022-08-02T20:46:58;101006.19;;;21.72;55.62
44359;BME280;30077;52.474;13.326;2022-08-02T20:52:00;101013.25;;;21.63;55.61
44359;BME280;30077;52.474;13.326;2022-08-02T20:57:00;101006.78;;;21.54;56.22
44359;BME280;30077;52.474;13.326;2022-08-02T21:02:01;101006.56;;;21.46;56.25
44359;BME280;30077;52.474;13.326;2022-08-02T21:07:01;101004.50;;;21.38;56.48
44359;BME280;30077;52.474;13.326;2022-08-02T21:12:03;101009.56;;;21.32;56.87
44359;BME280;30077;52.474;13.326;2022-08-02T21:17:04;100997.78;;;21.22;56.79
44359;BME280;30077;52.474;13.326;2022-08-02T21:22:07;101007.41;;;21.14;57.09
44359;BME280;30077;52.474;13.326;2022-08-02T21:27:07;101007.91;;;21.08;57.70
44359;BME280;30077;52.474;13.326;2022-08-02T21:32:08;101004.84;;;21.02;57.61
44359;BME280;30077;52.474;13.326;2022-08-02T21:37:08;101013.38;;;20.97;57.76
44359;BME280;30077;52.474;13.326;2022-08-02T21:42:09;101005.75;;;20.91;57.92
44359;BME280;30077;52.474;13.326;2022-08-02T21:47:09;101009.47;;;20.90;57.83
44359;BME280;30077;52.474;13.326;2022-08-02T21:52:13;101017.13;;;20.85;57.86
44359;BME280;30077;52.474;13.326;2022-08-02T21:57:14;101015.66;;;20.81;57.86
44359;BME280;30077;52.474;13.326;2022-08-02T22:02:15;101012.81;;;20.82;57.99
44359;BME280;30077;52.474;13.326;2022-08-02T22:07:18;101020.81;;;20.84;57.89
44359;BME280;30077;52.474;13.326;2022-08-02T22:12:18;101017.38;;;20.82;58.23
44359;BME280;30077;52.474;13.326;2022-08-02T22:17:19;101021.31;;;20.78;58.42
44359;BME280;30077;52.474;13.326;2022-08-02T22:22:19;101032.41;;;20.75;58.21
44359;BME280;30077;52.474;13.326;2022-08-02T22:27:19;101025.53;;;20.71;58.87
44359;BME280;30077;52.474;13.326;2022-08-02T22:32:19;101033.16;;;20.65;59.45
44359;BME280;30077;52.474;13.326;2022-08-02T22:37:40;101031.69;;;20.61;59.75
44359;BME280;30077;52.474;13.326;2022-08-02T22:42:41;101043.78;;;20.57;59.72
44359;BME280;30077;52.474;13.326;2022-08-02T22:47:41;101048.59;;;20.54;59.85
44359;BME280;30077;52.474;13.326;2022-08-02T22:52:42;101050.88;;;20.47;60.69
44359;BME280;30077;52.474;13.326;2022-08-02T22:57:42;101046.69;;;20.43;60.52
44359;BME280;30077;52.474;13.326;2022-08-02T23:02:42;101054.13;;;20.41;60.45
44359;BME280;30077;52.474;13.326;2022-08-02T23:07:42;101057.78;;;20.40;59.77
44359;BME280;30077;52.474;13.326;2022-08-02T23:12:42;101051.50;;;20.39;59.98
44359;BME280;30077;52.474;13.326;2022-08-02T23:17:43;101049.66;;;20.40;60.64
44359;BME280;30077;52.474;13.326;2022-08-02T23:23:03;101043.13;;;20.42;60.64
44359;BME280;30077;52.474;13.326;2022-08-02T23:28:03;101051.13;;;20.44;60.78
44359;BME280;30077;52.474;13.326;2022-08-02T23:33:04;101045.72;;;20.44;60.77
44359;BME280;30077;52.474;13.326;2022-08-02T23:38:04;101040.28;;;20.44;60.75
44359;BME280;30077;52.474;13.326;2022-08-02T23:43:04;101043.75;;;20.46;60.75
44359;BME280;30077;52.474;13.326;2022-08-02T23:48:04;101041.91;;;20.47;60.35
44359;BME280;30077;52.474;13.326;2022-08-02T23:53:04;101050.88;;;20.47;60.76
44359;BME280;30077;52.474;13.326;2022-08-02T23:58:05;101046.22;;;20.49;60.64
